Time;durP1;ratioP1;P1;durP2;ratioP2;P2;SDS_P1;SDS_P2;PMS_P1;PMS_P2;Temp;Humidity;BMP_temperature;BMP_pressure;BME280_temperature;BME280_humidity;BME280_pressure;Samples;Min_cycle;Max_cycle;Signal;HPM_P1;HPM_P2
2021/09/19 00:00:48;;;;;;;4.70;4.10;;;15.00;99.90;;;;;;4999724;28;20625;-72
2021/09/19 00:03:14;;;;;;;4.83;4.20;;;15.10;99.90;;;;;;5034466;28;20179;-73
2021/09/19 00:05:40;;;;;;;4.83;4.33;;;15.10;99.90;;;;;;5034975;28;20233;-73
2021/09/19 00:08:05;;;;;;;4.63;4.23;;;15.10;99.90;;;;;;5026929;28;20245;-72
2021/09/19 00:10:31;;;;;;;4.40;4.10;;;15.10;99.90;;;;;;5017995;28;20242;-72
2021/09/19 00:12:56;;;;;;;3.80;3.57;;;15.10;99.90;;;;;;5034443;28;20179;-72
2021/09/19 00:15:22;;;;;;;4.43;3.93;;;15.20;99.90;;;;;;5034362;28;20171;-72
2021/09/19 00:17:48;;;;;;;4.50;4.10;;;15.20;99.90;;;;;;5034630;28;20202;-72
2021/09/19 00:20:16;;;;;;;3.57;3.27;;;15.20;99.90;;;;;;5032631;28;20195;-72
2021/09/19 00:22:41;;;;;;;4.13;3.53;;;15.20;99.90;;;;;;5020798;28;20421;-72
2021/09/19 00:25:10;;;;;;;4.63;4.23;;;15.20;99.90;;;;;;5034782;28;20906;-72
2021/09/19 00:27:35;;;;;;;3.73;3.30;;;15.20;99.90;;;;;;5034261;28;20178;-72
2021/09/19 00:30:01;;;;;;;3.43;3.13;;;15.30;99.90;;;;;;5004603;28;20434;-72
2021/09/19 00:32:27;;;;;;;3.07;2.87;;;15.20;99.90;;;;;;5014724;28;20186;-72
2021/09/19 00:34:52;;;;;;;3.30;3.00;;;15.20;99.90;;;;;;4997080;28;20186;-73
2021/09/19 00:37:18;;;;;;;3.57;3.27;;;15.20;99.90;;;;;;5014743;28;20203;-72
2021/09/19 00:39:44;;;;;;;3.70;3.40;;;15.00;99.90;;;;;;5001752;28;20233;-72
2021/09/19 00:42:10;;;;;;;5.40;3.50;;;14.90;99.90;;;;;;5034777;28;20190;-72
2021/09/19 00:44:36;;;;;;;3.90;3.60;;;14.80;99.90;;;;;;4997480;28;20430;-72
2021/09/19 00:47:02;;;;;;;7.07;5.10;;;14.70;99.90;;;;;;5014752;28;20580;-72
2021/09/19 00:49:28;;;;;;;23.07;20.77;;;14.60;99.90;;;;;;4999235;28;20430;-72
2021/09/19 00:51:53;;;;;;;36.27;32.50;;;14.50;99.90;;;;;;5021782;28;20554;-72
2021/09/19 00:54:21;;;;;;;39.60;35.70;;;14.60;99.90;;;;;;5016948;28;20617;-72
2021/09/19 00:56:51;;;;;;;40.53;36.63;;;14.60;99.90;;;;;;5016321;28;20182;-72
2021/09/19 00:59:20;;;;;;;40.60;36.63;;;14.50;99.90;;;;;;5015776;28;20446;-72
2021/09/19 01:01:49;;;;;;;29.73;26.90;;;14.50;99.90;;;;;;5015514;28;20513;-72
2021/09/19 01:04:15;;;;;;;25.50;23.10;;;14.50;99.90;;;;;;5016492;28;20427;-73
2021/09/19 01:06:40;;;;;;;27.73;24.93;;;14.50;99.90;;;;;;5017378;28;20469;-72
2021/09/19 01:09:06;;;;;;;25.43;22.87;;;14.50;99.90;;;;;;5000723;28;20187;-72
2021/09/19 01:11:32;;;;;;;17.40;15.10;;;14.60;99.90;;;;;;5018501;28;20204;-72
2021/09/19 01:14:00;;;;;;;16.37;14.70;;;14.70;99.90;;;;;;5018561;28;20418;-72
2021/09/19 01:16:26;;;;;;;14.03;11.50;;;14.60;99.90;;;;;;5018706;28;20580;-72
2021/09/19 01:18:54;;;;;;;12.77;9.50;;;14.60;99.90;;;;;;5017922;28;20458;-72
2021/09/19 01:21:19;;;;;;;10.30;8.50;;;14.60;99.90;;;;;;5018177;28;20465;-73
2021/09/19 01:24:00;;;;;;;7.83;6.67;;;14.50;99.90;;;;;;5022955;28;20413;-72
2021/09/19 01:26:27;;;;;;;9.10;6.50;;;14.50;99.90;;;;;;5037302;28;20201;-72
2021/09/19 01:28:53;;;;;;;6.57;6.07;;;14.50;99.90;;;;;;5042444;28;20914;-72
2021/09/19 01:31:18;;;;;;;5.23;4.60;;;14.40;99.90;;;;;;5028275;28;20476;-71
2021/09/19 01:33:44;;;;;;;7.40;4.10;;;14.40;99.90;;;;;;5038544;28;20413;-72
2021/09/19 01:36:12;;;;;;;3.53;3.10;;;14.40;99.90;;;;;;5036302;28;20588;-72
2021/09/19 01:38:39;;;;;;;3.40;3.10;;;14.30;99.90;;;;;;5022447;28;20213;-72
2021/09/19 01:41:04;;;;;;;5.33;2.97;;;14.30;99.90;;;;;;5039644;28;20560;-72
2021/09/19 01:43:30;;;;;;;3.40;2.73;;;14.30;99.90;;;;;;5041115;28;20410;-72
2021/09/19 01:46:08;;;;;;;3.23;2.93;;;14.20;99.90;;;;;;5038862;28;20409;-72
2021/09/19 01:48:35;;;;;;;2.87;2.67;;;14.20;99.90;;;;;;5000057;28;20255;-72
2021/09/19 01:51:02;;;;;;;2.27;2.17;;;14.20;99.90;;;;;;5017364;28;20854;-72
2021/09/19 01:53:27;;;;;;;2.50;2.30;;;14.10;99.90;;;;;;5000058;28;20500;-72
2021/09/19 01:55:54;;;;;;;2.77;2.57;;;14.00;99.90;;;;;;5017513;28;20407;-72
2021/09/19 01:58:19;;;;;;;2.83;2.63;;;14.00;99.90;;;;;;5030636;28;20206;-72
2021/09/19 02:00:45;;;;;;;3.10;2.43;;;14.00;99.90;;;;;;5037068;28;20434;-72
2021/09/19 02:03:11;;;;;;;3.67;2.43;;;13.90;99.90;;;;;;5036798;28;20175;-72
2021/09/19 02:05:36;;;;;;;2.00;1.80;;;13.90;99.90;;;;;;5036825;28;20175;-72
2021/09/19 02:08:02;;;;;;;2.57;2.37;;;13.90;99.90;;;;;;5035708;28;20233;-72
2021/09/19 02:10:27;;;;;;;2.20;2.10;;;13.90;99.90;;;;;;5036586;28;20277;-72
2021/09/19 02:12:53;;;;;;;2.70;2.30;;;13.90;99.90;;;;;;5036611;28;20175;-72
2021/09/19 02:15:19;;;;;;;2.43;2.30;;;13.90;99.90;;;;;;5036960;28;20254;-72
2021/09/19 02:17:44;;;;;;;3.53;2.80;;;13.90;99.90;;;;;;5034999;28;20203;-71
2021/09/19 02:20:12;;;;;;;2.43;2.23;;;13.90;99.90;;;;;;5016389;28;20258;-72
2021/09/19 02:22:38;;;;;;;2.73;2.53;;;13.90;99.90;;;;;;5016781;28;20195;-72
2021/09/19 02:25:05;;;;;;;2.70;2.50;;;13.90;99.90;;;;;;5017098;28;20525;-72
2021/09/19 02:27:31;;;;;;;3.00;2.40;;;13.90;99.90;;;;;;5002105;28;20460;-72
2021/09/19 02:29:57;;;;;;;2.10;2.00;;;13.90;99.90;;;;;;5028186;28;20791;-72
2021/09/19 02:32:22;;;;;;;2.33;2.23;;;13.80;99.90;;;;;;5036371;28;20195;-72
2021/09/19 02:34:48;;;;;;;2.67;2.30;;;13.80;99.90;;;;;;5037082;28;20167;-72
2021/09/19 02:37:14;;;;;;;2.87;2.53;;;13.80;99.90;;;;;;5036419;28;20733;-72
2021/09/19 02:39:40;;;;;;;2.40;2.20;;;13.80;99.90;;;;;;5032417;28;20203;-72
2021/09/19 02:42:06;;;;;;;2.87;2.67;;;13.80;99.90;;;;;;5016257;28;20431;-72
2021/09/19 02:44:31;;;;;;;2.63;2.43;;;13.80;99.90;;;;;;5035621;28;20167;-72
2021/09/19 02:46:57;;;;;;;2.50;2.30;;;13.70;99.90;;;;;;5018821;28;20422;-71
2021/09/19 02:49:22;;;;;;;2.40;2.13;;;13.70;99.90;;;;;;5036367;28;20628;-72
2021/09/19 02:51:48;;;;;;;2.20;2.00;;;13.70;99.90;;;;;;5035889;28;20210;-72
2021/09/19 02:54:13;;;;;;;2.23;2.13;;;13.70;99.90;;;;;;5034783;28;20205;-72
2021/09/19 02:56:39;;;;;;;2.70;2.50;;;13.70;99.90;;;;;;5018181;28;20179;-71
2021/09/19 02:59:04;;;;;;;2.50;2.30;;;13.80;99.90;;;;;;5018268;28;20297;-72
2021/09/19 03:01:30;;;;;;;2.30;2.20;;;13.80;99.90;;;;;;5036066;28;20210;-72
2021/09/19 03:03:55;;;;;;;3.37;2.40;;;13.80;99.90;;;;;;5034488;28;20171;-72
2021/09/19 03:06:24;;;;;;;2.40;2.30;;;13.80;99.90;;;;;;5019210;28;20201;-72
2021/09/19 03:08:49;;;;;;;2.60;2.40;;;13.80;99.90;;;;;;5036946;28;20257;-72
2021/09/19 03:11:15;;;;;;;2.33;2.23;;;13.80;99.90;;;;;;5036846;28;20846;-72
2021/09/19 03:13:40;;;;;;;2.30;2.20;;;13.80;99.90;;;;;;5037196;28;20179;-72
2021/09/19 03:16:06;;;;;;;3.00;2.10;;;13.80;99.90;;;;;;5051277;28;20182;-71
2021/09/19 03:18:31;;;;;;;2.20;2.10;;;13.80;99.90;;;;;;5052977;28;20238;-72
2021/09/19 03:20:57;;;;;;;2.13;2.03;;;13.80;99.90;;;;;;5037663;28;20203;-72
2021/09/19 03:23:22;;;;;;;2.90;2.50;;;13.80;99.90;;;;;;5057985;28;20210;-72
2021/09/19 03:25:48;;;;;;;2.50;2.30;;;13.80;99.90;;;;;;5056300;28;20173;-71
2021/09/19 03:28:13;;;;;;;3.00;2.40;;;13.80;99.90;;;;;;5040726;28;20183;-71
2021/09/19 03:30:39;;;;;;;2.57;2.37;;;13.90;99.90;;;;;;5036460;28;20257;-72
2021/09/19 03:33:05;;;;;;;3.07;2.50;;;14.00;99.90;;;;;;5036313;28;20186;-72
2021/09/19 03:35:30;;;;;;;3.10;2.60;;;14.00;99.90;;;;;;5034662;28;20195;-71
2021/09/19 03:37:56;;;;;;;2.70;2.50;;;14.10;99.90;;;;;;5038666;28;20202;-71
2021/09/19 03:40:22;;;;;;;3.03;2.73;;;14.00;99.90;;;;;;5040151;28;20228;-71
2021/09/19 03:42:50;;;;;;;3.23;3.00;;;14.00;99.90;;;;;;5057804;28;20178;-72
2021/09/19 03:45:15;;;;;;;2.47;2.13;;;14.00;99.90;;;;;;5055772;28;20177;-72
2021/09/19 03:47:41;;;;;;;3.30;3.00;;;14.00;99.90;;;;;;5007631;28;20770;-72
2021/09/19 03:50:08;;;;;;;2.70;2.50;;;14.00;99.90;;;;;;5016672;28;20195;-72
2021/09/19 03:52:33;;;;;;;3.50;2.67;;;14.00;99.90;;;;;;5035343;28;20191;-72
2021/09/19 03:54:59;;;;;;;2.87;2.70;;;14.00;99.90;;;;;;5035466;28;20410;-72
2021/09/19 03:57:24;;;;;;;2.93;2.67;;;14.00;99.90;;;;;;5029294;28;20247;-72
2021/09/19 03:59:50;;;;;;;3.00;2.80;;;14.00;99.90;;;;;;5015288;28;20309;-72
2021/09/19 04:02:15;;;;;;;3.93;2.50;;;14.00;99.90;;;;;;5015428;28;20200;-72
2021/09/19 04:04:41;;;;;;;3.00;2.80;;;13.90;99.90;;;;;;5015284;28;20189;-72
2021/09/19 04:07:07;;;;;;;2.87;2.67;;;13.90;99.90;;;;;;5015949;28;20179;-73
2021/09/19 04:09:32;;;;;;;4.60;3.00;;;13.90;99.90;;;;;;5015808;28;20176;-72
2021/09/19 04:11:58;;;;;;;3.30;3.10;;;13.90;99.90;;;;;;4997416;28;20207;-72
2021/09/19 04:14:23;;;;;;;3.83;3.40;;;13.90;99.90;;;;;;5014822;28;20664;-72
2021/09/19 04:16:49;;;;;;;3.43;3.13;;;13.90;99.90;;;;;;5015158;28;20191;-73
2021/09/19 04:19:15;;;;;;;3.87;3.57;;;13.90;99.90;;;;;;5007400;28;20587;-72
2021/09/19 04:21:40;;;;;;;3.50;3.20;;;13.90;99.90;;;;;;5017034;28;20436;-73
2021/09/19 04:24:06;;;;;;;3.43;3.23;;;13.90;99.90;;;;;;5033952;28;20189;-72
2021/09/19 04:26:31;;;;;;;3.87;3.57;;;13.80;99.90;;;;;;5034626;28;20163;-72
2021/09/19 04:28:57;;;;;;;3.40;3.10;;;13.80;99.90;;;;;;5030529;28;20218;-72
2021/09/19 04:31:22;;;;;;;3.83;3.50;;;13.80;99.90;;;;;;5014483;28;20518;-72
2021/09/19 04:33:48;;;;;;;3.90;3.00;;;13.80;99.90;;;;;;5015415;28;20253;-72
2021/09/19 04:36:14;;;;;;;5.27;3.90;;;13.80;99.90;;;;;;5014921;28;20263;-72
2021/09/19 04:38:39;;;;;;;3.83;3.53;;;13.80;99.90;;;;;;5014875;28;20258;-72
2021/09/19 04:41:05;;;;;;;3.90;3.50;;;13.80;99.90;;;;;;5031226;28;20206;-72
2021/09/19 04:43:30;;;;;;;4.17;3.87;;;13.80;99.90;;;;;;5027174;28;20175;-72
2021/09/19 04:45:56;;;;;;;3.63;3.33;;;13.80;99.90;;;;;;5018873;28;20183;-72
2021/09/19 04:48:22;;;;;;;3.70;3.40;;;13.70;99.90;;;;;;5001547;28;20186;-72
2021/09/19 04:50:48;;;;;;;3.57;3.33;;;13.70;99.90;;;;;;5000842;28;20221;-73
2021/09/19 04:53:14;;;;;;;3.60;3.10;;;13.60;99.90;;;;;;5019780;28;20524;-73
2021/09/19 04:55:39;;;;;;;4.67;4.17;;;13.60;99.90;;;;;;5018403;28;20880;-72
2021/09/19 04:58:05;;;;;;;3.80;3.50;;;13.60;99.90;;;;;;5018474;28;20183;-72
2021/09/19 05:00:30;;;;;;;3.90;3.60;;;13.60;99.90;;;;;;5019158;28;20649;-72
2021/09/19 05:02:56;;;;;;;4.07;3.77;;;13.60;99.90;;;;;;5019339;28;20180;-72
2021/09/19 05:05:21;;;;;;;3.77;3.47;;;13.60;99.90;;;;;;5020617;28;20576;-73
2021/09/19 05:07:47;;;;;;;4.23;3.83;;;13.60;99.90;;;;;;5031043;28;20189;-72
2021/09/19 05:10:13;;;;;;;3.83;3.53;;;13.50;99.90;;;;;;5038023;28;20174;-72
2021/09/19 05:12:39;;;;;;;4.00;3.60;;;13.50;99.90;;;;;;5038236;28;20817;-72
2021/09/19 05:15:05;;;;;;;4.20;3.90;;;13.50;99.90;;;;;;5021983;28;20187;-72
2021/09/19 05:17:30;;;;;;;4.47;4.07;;;13.50;99.90;;;;;;5037981;28;20185;-73
2021/09/19 05:19:56;;;;;;;4.40;4.00;;;13.50;99.90;;;;;;5037477;28;20556;-73
2021/09/19 05:22:22;;;;;;;4.20;3.90;;;13.50;99.90;;;;;;5038165;28;20233;-72
2021/09/19 05:24:47;;;;;;;4.20;3.80;;;13.50;99.90;;;;;;5019549;28;20171;-73
2021/09/19 05:27:13;;;;;;;4.63;4.23;;;13.50;99.90;;;;;;5000224;28;20168;-72
2021/09/19 05:29:38;;;;;;;4.77;4.30;;;13.50;99.90;;;;;;5000898;28;20544;-73
2021/09/19 05:32:04;;;;;;;4.90;3.97;;;13.40;99.90;;;;;;5019191;28;20195;-73
2021/09/19 05:34:31;;;;;;;4.80;4.40;;;13.40;99.90;;;;;;5001058;28;20175;-72
2021/09/19 05:36:58;;;;;;;5.17;4.03;;;13.40;99.90;;;;;;5020277;28;20637;-72
2021/09/19 05:39:24;;;;;;;4.13;3.80;;;13.40;99.90;;;;;;5006298;28;20501;-72
2021/09/19 05:41:51;;;;;;;4.10;3.73;;;13.40;99.90;;;;;;5024483;28;20434;-71
2021/09/19 05:44:17;;;;;;;6.03;4.77;;;13.40;99.90;;;;;;5026194;28;20176;-72
2021/09/19 05:46:42;;;;;;;4.73;3.97;;;13.40;99.90;;;;;;5030605;28;20501;-72
2021/09/19 05:49:08;;;;;;;4.57;3.97;;;13.50;99.90;;;;;;5025659;28;20203;-72
2021/09/19 05:51:33;;;;;;;4.50;4.10;;;13.40;99.90;;;;;;5019595;28;20207;-72
2021/09/19 05:53:59;;;;;;;3.83;3.43;;;13.50;99.90;;;;;;5028304;28;20179;-72
2021/09/19 05:56:24;;;;;;;5.43;4.10;;;13.50;99.90;;;;;;5029138;28;20179;-72
2021/09/19 05:58:51;;;;;;;5.33;3.60;;;13.60;99.90;;;;;;5025137;28;20673;-72
2021/09/19 06:01:17;;;;;;;3.90;3.50;;;13.60;99.90;;;;;;5036465;28;20207;-72
2021/09/19 06:03:42;;;;;;;3.70;3.40;;;13.60;99.90;;;;;;5010538;28;20421;-72
2021/09/19 06:06:08;;;;;;;3.97;3.60;;;13.70;99.90;;;;;;5016426;28;20167;-72
2021/09/19 06:08:33;;;;;;;4.17;3.87;;;13.80;99.90;;;;;;5018195;28;20630;-72
2021/09/19 06:10:59;;;;;;;3.23;3.03;;;13.80;99.90;;;;;;5006584;28;20253;-72
2021/09/19 06:13:24;;;;;;;4.50;4.10;;;13.80;99.90;;;;;;5036175;28;20183;-71
2021/09/19 06:15:50;;;;;;;4.43;4.13;;;13.90;99.90;;;;;;5030668;28;20183;-72
2021/09/19 06:18:16;;;;;;;7.13;4.00;;;13.90;99.90;;;;;;5042298;28;20253;-72
2021/09/19 06:20:41;;;;;;;4.20;3.80;;;14.00;99.90;;;;;;5022957;28;20297;-72
2021/09/19 06:23:07;;;;;;;4.30;3.67;;;14.00;99.90;;;;;;5028583;28;20232;-73
2021/09/19 06:25:33;;;;;;;4.30;4.00;;;14.10;99.90;;;;;;5028119;28;20283;-72
2021/09/19 06:27:59;;;;;;;4.43;4.03;;;14.10;99.90;;;;;;5029127;28;20194;-72
2021/09/19 06:30:26;;;;;;;4.13;3.73;;;14.20;99.90;;;;;;5026691;28;20476;-72
2021/09/19 06:32:52;;;;;;;4.03;3.67;;;14.20;99.90;;;;;;5037310;28;20182;-72
2021/09/19 06:35:17;;;;;;;3.50;3.20;;;14.30;99.90;;;;;;5035587;28;20417;-72
2021/09/19 06:37:43;;;;;;;3.90;3.60;;;14.30;99.90;;;;;;5041865;28;20222;-72
2021/09/19 06:40:11;;;;;;;3.40;3.10;;;14.30;99.90;;;;;;5054090;28;20573;-73
2021/09/19 06:42:36;;;;;;;4.13;3.83;;;14.30;99.90;;;;;;5034159;28;20184;-72
2021/09/19 06:45:03;;;;;;;4.67;4.27;;;14.30;99.90;;;;;;5054484;28;20491;-73
2021/09/19 06:47:28;;;;;;;4.60;4.20;;;14.30;99.90;;;;;;5055994;28;20187;-72
2021/09/19 06:49:54;;;;;;;4.33;3.93;;;14.20;99.90;;;;;;5034022;28;20563;-73
2021/09/19 06:52:21;;;;;;;3.67;3.37;;;14.20;99.90;;;;;;5032870;28;20537;-73
2021/09/19 06:54:47;;;;;;;4.23;3.90;;;14.30;99.90;;;;;;5030125;28;20422;-74
2021/09/19 06:57:12;;;;;;;3.77;3.47;;;14.20;99.90;;;;;;5033559;28;20472;-73
2021/09/19 06:59:38;;;;;;;3.63;3.33;;;14.30;99.90;;;;;;5031365;28;20469;-73
2021/09/19 07:02:04;;;;;;;4.77;4.37;;;14.30;99.90;;;;;;5032593;28;20217;-73
2021/09/19 07:04:30;;;;;;;4.10;3.80;;;14.40;99.90;;;;;;5018480;28;20441;-73
2021/09/19 07:06:55;;;;;;;3.63;3.33;;;14.40;99.90;;;;;;5033088;28;20205;-73
2021/09/19 07:09:21;;;;;;;4.07;3.77;;;14.40;99.90;;;;;;5030892;28;20571;-71
2021/09/19 07:11:46;;;;;;;4.60;4.00;;;14.50;99.90;;;;;;5010337;28;20251;-72
2021/09/19 07:14:12;;;;;;;5.20;4.10;;;14.60;99.90;;;;;;5023845;28;20488;-73
2021/09/19 07:16:37;;;;;;;4.10;3.80;;;14.60;99.90;;;;;;5028452;28;20476;-72
2021/09/19 07:19:03;;;;;;;3.70;3.40;;;14.60;99.90;;;;;;5013330;28;20218;-72
2021/09/19 07:21:29;;;;;;;3.67;3.13;;;14.70;99.90;;;;;;5028476;28;20233;-73
2021/09/19 07:23:54;;;;;;;3.87;3.57;;;14.70;99.90;;;;;;5033155;28;20202;-73
2021/09/19 07:26:20;;;;;;;3.93;3.63;;;14.80;99.90;;;;;;5030013;28;20226;-73
2021/09/19 07:28:46;;;;;;;4.00;3.70;;;14.80;99.90;;;;;;5013164;28;20213;-71
2021/09/19 07:31:12;;;;;;;4.13;3.83;;;15.00;99.90;;;;;;5031419;28;20469;-72
2021/09/19 07:33:38;;;;;;;4.27;3.87;;;15.00;99.90;;;;;;5031184;28;20555;-71
2021/09/19 07:36:04;;;;;;;3.73;3.20;;;15.10;99.90;;;;;;5028422;28;20556;-73
2021/09/19 07:38:30;;;;;;;4.10;3.63;;;15.20;99.90;;;;;;5030319;28;20221;-73
2021/09/19 07:40:56;;;;;;;4.37;3.70;;;15.40;99.90;;;;;;5031251;28;20437;-72
2021/09/19 07:43:21;;;;;;;4.00;3.60;;;15.50;99.90;;;;;;5031053;28;20246;-72
2021/09/19 07:45:47;;;;;;;3.30;3.00;;;15.60;99.90;;;;;;5029450;28;20261;-73
2021/09/19 07:48:14;;;;;;;4.20;3.90;;;15.70;99.90;;;;;;5025348;28;20242;-72
2021/09/19 07:50:41;;;;;;;3.80;3.50;;;15.70;99.90;;;;;;5020507;28;20223;-72
2021/09/19 07:53:11;;;;;;;4.27;3.60;;;15.80;99.90;;;;;;5002006;28;20469;-72
2021/09/19 07:55:37;;;;;;;4.20;3.80;;;15.90;99.90;;;;;;5026681;28;20433;-72
2021/09/19 07:58:02;;;;;;;4.00;3.70;;;16.00;99.90;;;;;;5018192;28;20951;-72
2021/09/19 08:00:28;;;;;;;4.20;3.80;;;16.10;99.90;;;;;;5008105;28;20550;-72
2021/09/19 08:02:54;;;;;;;4.53;3.83;;;16.20;99.90;;;;;;5044832;28;20636;-74
2021/09/19 08:05:23;;;;;;;3.70;3.33;;;16.30;99.90;;;;;;5028916;28;20255;-71
2021/09/19 08:07:49;;;;;;;4.67;3.40;;;16.40;99.90;;;;;;5024001;28;20466;-72
2021/09/19 08:10:15;;;;;;;4.27;3.87;;;16.50;99.90;;;;;;5024585;28;20477;-71
2021/09/19 08:12:46;;;;;;;4.67;4.13;;;16.60;99.90;;;;;;5021936;28;20473;-72
2021/09/19 08:15:12;;;;;;;3.63;3.40;;;16.70;99.90;;;;;;5023696;28;20799;-73
2021/09/19 08:17:38;;;;;;;3.53;3.23;;;16.80;99.90;;;;;;5030027;28;20461;-73
2021/09/19 08:20:04;;;;;;;3.80;3.50;;;16.90;99.90;;;;;;5009304;28;20234;-73
2021/09/19 08:22:29;;;;;;;4.03;3.63;;;17.00;99.90;;;;;;5015401;28;20258;-74
2021/09/19 08:24:55;;;;;;;4.10;3.80;;;17.00;99.90;;;;;;5033310;28;20448;-73
2021/09/19 08:27:20;;;;;;;6.40;4.07;;;17.10;99.90;;;;;;5041154;28;20223;-71
2021/09/19 08:29:46;;;;;;;4.33;3.90;;;17.10;99.90;;;;;;5024609;28;20214;-73
2021/09/19 08:32:11;;;;;;;4.63;4.23;;;17.20;99.90;;;;;;5028331;28;20219;-72
2021/09/19 08:34:41;;;;;;;4.13;3.83;;;17.20;99.90;;;;;;5028866;28;20199;-73
2021/09/19 08:37:06;;;;;;;4.13;3.83;;;17.20;99.90;;;;;;5028982;28;20269;-73
2021/09/19 08:39:32;;;;;;;4.30;3.77;;;17.20;99.90;;;;;;5025748;28;20489;-72
2021/09/19 08:41:57;;;;;;;4.10;3.80;;;17.20;99.90;;;;;;5005776;28;20315;-71
2021/09/19 08:44:23;;;;;;;4.40;4.00;;;17.20;99.90;;;;;;5023761;28;20736;-73
2021/09/19 08:46:49;;;;;;;4.00;3.70;;;17.30;99.90;;;;;;5035712;28;20175;-72
2021/09/19 08:49:18;;;;;;;3.83;3.53;;;17.40;99.90;;;;;;5031584;28;20213;-71
2021/09/19 08:51:44;;;;;;;4.30;3.90;;;17.60;99.90;;;;;;5035023;28;20218;-72
2021/09/19 08:54:09;;;;;;;4.70;4.30;;;17.60;99.90;;;;;;5014696;28;20438;-72
2021/09/19 08:56:35;;;;;;;4.60;4.20;;;17.70;99.90;;;;;;5026342;28;20183;-73
2021/09/19 08:59:02;;;;;;;4.20;3.80;;;17.80;99.90;;;;;;5027989;28;20927;-72
2021/09/19 09:01:27;;;;;;;4.80;4.40;;;17.90;99.90;;;;;;5015335;28;20214;-72
2021/09/19 09:04:02;;;;;;;4.10;3.70;;;18.00;99.90;;;;;;5024860;28;20777;-72
2021/09/19 09:06:27;;;;;;;4.00;3.70;;;18.30;99.90;;;;;;5026142;28;20183;-72
2021/09/19 09:08:53;;;;;;;4.20;3.90;;;18.50;99.90;;;;;;5026056;28;20437;-72
2021/09/19 09:11:18;;;;;;;4.45;4.05;;;18.60;99.90;;;;;;5039486;28;20416;-72
2021/09/19 09:13:44;;;;;;;3.93;3.63;;;18.60;99.90;;;;;;5040376;28;20265;-70
2021/09/19 09:16:18;;;;;;;4.27;3.93;;;18.80;99.90;;;;;;5030147;28;20199;-70
2021/09/19 09:18:52;;;;;;;3.77;3.47;;;18.80;99.90;;;;;;5036355;28;20202;-71
2021/09/19 09:21:18;;;;;;;3.90;3.60;;;18.80;99.90;;;;;;5030727;28;20523;-71
2021/09/19 09:23:46;;;;;;;4.00;3.60;;;18.80;99.90;;;;;;5035995;28;20489;-72
2021/09/19 09:26:24;;;;;;;4.00;3.70;;;18.90;99.90;;;;;;5018624;28;20497;-71
2021/09/19 09:28:57;;;;;;;3.63;3.33;;;19.10;99.90;;;;;;5035836;28;20412;-72
2021/09/19 09:31:30;;;;;;;3.93;3.63;;;19.30;99.90;;;;;;5045540;28;20437;-71
2021/09/19 09:34:14;;;;;;;5.00;4.60;;;19.40;99.90;;;;;;5033432;28;20774;-71
2021/09/19 09:36:43;;;;;;;3.63;3.43;;;19.40;99.90;;;;;;5030626;28;20476;-72
2021/09/19 09:39:23;;;;;;;3.40;3.10;;;19.70;99.90;;;;;;5033795;28;20953;-72
2021/09/19 09:41:49;;;;;;;3.77;3.47;;;19.80;99.90;;;;;;5034032;28;21066;-72
2021/09/19 09:44:32;;;;;;;3.93;3.63;;;19.90;99.60;;;;;;5034147;28;20414;-72
2021/09/19 09:46:59;;;;;;;3.90;3.60;;;19.90;99.40;;;;;;5031452;28;20440;-72
2021/09/19 09:49:48;;;;;;;3.67;3.40;;;19.90;99.30;;;;;;5033691;28;20430;-73
2021/09/19 09:52:16;;;;;;;3.53;3.33;;;19.90;98.80;;;;;;5038343;28;20459;-73
2021/09/19 09:55:00;;;;;;;4.10;3.70;;;19.90;99.10;;;;;;5035780;28;20873;-72
2021/09/19 09:57:35;;;;;;;3.40;3.20;;;20.00;99.10;;;;;;5025284;28;20440;-73
2021/09/19 10:00:12;;;;;;;3.70;3.50;;;20.00;98.90;;;;;;5049251;28;20512;-71
2021/09/19 10:02:40;;;;;;;3.30;3.10;;;19.90;98.90;;;;;;5066110;28;20427;-73
2021/09/19 10:05:08;;;;;;;4.07;3.77;;;19.70;99.10;;;;;;5039527;28;20503;-72
2021/09/19 10:07:35;;;;;;;4.00;3.70;;;19.70;99.50;;;;;;5060616;28;20439;-71
2021/09/19 10:10:04;;;;;;;4.17;3.87;;;19.70;99.60;;;;;;5037941;28;20438;-72
2021/09/19 10:12:30;;;;;;;3.37;3.07;;;19.60;99.80;;;;;;5030954;28;20524;-72
2021/09/19 10:14:55;;;;;;;3.70;3.40;;;19.50;99.80;;;;;;5033325;28;20512;-72
2021/09/19 10:17:22;;;;;;;4.30;3.90;;;19.50;99.90;;;;;;5026344;28;20553;-72
2021/09/19 10:19:49;;;;;;;4.60;4.00;;;19.60;99.90;;;;;;5026988;28;20580;-72
2021/09/19 10:22:23;;;;;;;3.53;3.23;;;19.60;99.90;;;;;;5033064;28;20433;-72
2021/09/19 10:24:49;;;;;;;3.87;3.53;;;19.50;99.90;;;;;;5033229;28;20405;-72
2021/09/19 10:27:23;;;;;;;3.90;3.60;;;19.50;99.90;;;;;;5032143;28;20479;-72
2021/09/19 10:29:57;;;;;;;5.57;3.60;;;19.40;99.90;;;;;;5024309;28;20524;-72
2021/09/19 10:32:41;;;;;;;4.10;3.80;;;19.30;99.90;;;;;;5029321;28;20445;-72
2021/09/19 10:35:18;;;;;;;4.17;3.80;;;19.20;99.90;;;;;;5032795;28;20449;-72
2021/09/19 10:37:50;;;;;;;4.67;4.20;;;19.10;99.90;;;;;;5023187;28;20410;-72
2021/09/19 10:40:32;;;;;;;4.90;4.30;;;19.20;99.90;;;;;;5015073;28;20477;-72
2021/09/19 10:42:57;;;;;;;4.50;4.10;;;19.30;99.90;;;;;;5034699;28;20503;-72
2021/09/19 10:45:38;;;;;;;4.10;3.70;;;19.30;99.90;;;;;;5024105;28;20524;-72
2021/09/19 10:48:15;;;;;;;4.10;3.80;;;19.20;99.90;;;;;;5021084;28;20212;-72
2021/09/19 10:50:42;;;;;;;4.03;3.63;;;19.20;99.90;;;;;;5011226;28;20476;-72
2021/09/19 10:53:24;;;;;;;4.00;3.70;;;19.20;99.90;;;;;;5041041;28;20441;-74
2021/09/19 10:55:59;;;;;;;4.37;4.03;;;19.30;99.90;;;;;;5027078;28;20540;-72
2021/09/19 10:58:39;;;;;;;4.43;4.03;;;19.40;99.90;;;;;;5033455;28;20457;-72
2021/09/19 11:01:14;;;;;;;5.00;4.60;;;19.40;99.90;;;;;;5030837;28;20457;-72
2021/09/19 11:04:01;;;;;;;4.67;4.27;;;19.40;99.90;;;;;;5037170;28;20409;-72
2021/09/19 11:06:39;;;;;;;4.57;4.17;;;19.50;99.90;;;;;;5022623;28;20461;-72
2021/09/19 11:09:23;;;;;;;4.80;4.40;;;19.50;99.90;;;;;;5018388;28;20463;-72
2021/09/19 11:12:18;;;;;;;3.83;3.53;;;19.50;99.90;;;;;;5036776;28;20515;-72
2021/09/19 11:15:05;;;;;;;4.20;3.90;;;19.60;99.90;;;;;;4949894;29;20436;-72
2021/09/19 11:17:33;;;;;;;4.10;3.80;;;19.60;99.90;;;;;;4936645;29;20429;-72
2021/09/19 11:20:11;;;;;;;4.57;4.17;;;19.60;99.90;;;;;;4936173;29;20474;-72
2021/09/19 11:22:41;;;;;;;4.20;3.80;;;19.70;99.90;;;;;;4936099;29;20946;-72
2021/09/19 11:25:07;;;;;;;4.43;4.07;;;19.70;99.70;;;;;;4937665;29;20574;-71
2021/09/19 11:27:39;;;;;;;4.63;4.23;;;19.70;99.50;;;;;;4936473;29;20859;-71
2021/09/19 11:30:06;;;;;;;3.87;3.57;;;19.60;99.70;;;;;;4935984;29;20501;-73
2021/09/19 11:32:32;;;;;;;4.83;4.43;;;19.60;99.50;;;;;;4936008;29;20425;-71
2021/09/19 11:34:58;;;;;;;4.00;3.70;;;19.70;99.60;;;;;;4935958;29;20426;-71
2021/09/19 11:37:25;;;;;;;4.80;4.40;;;19.60;99.90;;;;;;4937141;28;20213;-72
2021/09/19 11:39:51;;;;;;;4.67;4.37;;;19.60;99.90;;;;;;4935573;29;20469;-72
2021/09/19 11:42:16;;;;;;;5.40;4.90;;;19.70;99.90;;;;;;4935504;29;20441;-72
2021/09/19 11:44:45;;;;;;;5.03;4.63;;;19.70;99.90;;;;;;4936015;29;20281;-72
2021/09/19 11:47:13;;;;;;;4.00;3.70;;;19.70;99.90;;;;;;4937171;29;20269;-72
2021/09/19 11:49:40;;;;;;;4.60;4.30;;;19.90;99.80;;;;;;4919104;28;20573;-72
2021/09/19 11:52:05;;;;;;;5.10;4.70;;;19.90;99.80;;;;;;5008573;28;20454;-73
2021/09/19 11:54:31;;;;;;;5.33;4.83;;;19.80;99.60;;;;;;5015298;28;20474;-72
2021/09/19 11:56:58;;;;;;;4.40;4.10;;;19.80;99.70;;;;;;4998316;28;20573;-72
2021/09/19 11:59:24;;;;;;;4.30;4.00;;;19.80;99.80;;;;;;5032738;28;20231;-73
2021/09/19 12:01:49;;;;;;;5.37;4.70;;;19.90;99.30;;;;;;5017165;28;20452;-72
2021/09/19 12:04:15;;;;;;;4.57;4.17;;;20.00;99.30;;;;;;5017067;28;20257;-71
2021/09/19 12:06:43;;;;;;;4.57;4.20;;;20.00;99.10;;;;;;5016394;28;20174;-72
2021/09/19 12:09:16;;;;;;;4.43;4.13;;;20.00;99.20;;;;;;5018492;28;20501;-72
2021/09/19 12:11:50;;;;;;;4.57;4.17;;;20.00;99.30;;;;;;5014840;28;20867;-72
2021/09/19 12:14:22;;;;;;;4.77;4.37;;;19.70;99.60;;;;;;5014406;28;20781;-72
2021/09/19 12:17:06;;;;;;;4.97;4.57;;;19.80;99.80;;;;;;5015527;28;20419;-72
2021/09/19 12:19:36;;;;;;;4.73;4.33;;;19.80;99.90;;;;;;4997949;28;20465;-72
2021/09/19 12:22:19;;;;;;;5.33;4.70;;;19.80;99.90;;;;;;5014733;28;20438;-72
2021/09/19 12:24:49;;;;;;;4.23;3.83;;;19.90;99.50;;;;;;5015278;28;20429;-72
2021/09/19 12:27:20;;;;;;;4.80;4.40;;;19.80;99.30;;;;;;5014580;28;20449;-72
2021/09/19 12:30:00;;;;;;;5.07;3.87;;;19.80;99.90;;;;;;5014349;28;20480;-72
2021/09/19 12:32:54;;;;;;;4.60;4.20;;;19.70;99.90;;;;;;5013944;28;20763;-72
2021/09/19 12:35:27;;;;;;;4.57;4.17;;;19.70;99.90;;;;;;5011178;28;20426;-72
2021/09/19 12:37:56;;;;;;;4.20;3.90;;;19.60;99.90;;;;;;4997185;28;20934;-71
2021/09/19 12:40:23;;;;;;;4.20;3.80;;;19.60;99.90;;;;;;5015526;28;20967;-72
2021/09/19 12:42:51;;;;;;;6.20;4.93;;;19.60;99.90;;;;;;5015072;28;20423;-72
2021/09/19 12:45:22;;;;;;;4.70;4.23;;;19.40;99.90;;;;;;5014924;28;20465;-72
2021/09/19 12:47:55;;;;;;;4.47;4.07;;;19.40;99.90;;;;;;5014811;28;20418;-71